Time;durP1;ratioP1;P1;durP2;ratioP2;P2;SDS_P1;SDS_P2;PMS_P1;PMS_P2;Temp;Humidity;BMP_temperature;BMP_pressure;BME280_temperature;BME280_humidity;BME280_pressure;Samples;Min_cycle;Max_cycle;Signal;HPM_P1;HPM_P2
2024/01/29 00:33:36;;;;;;;99.00;46.10;;;;;;;-0.89;93.88;100530.95;436481;1248;97710;-39
2024/01/29 00:43:39;;;;;;;94.80;45.20;;;;;;;-0.88;93.98;100539.15;436340;1251;97868;-39
2024/01/29 00:53:43;;;;;;;73.40;38.80;;;;;;;-0.80;93.91;100539.80;436321;1248;109534;-40
2024/01/29 01:03:46;;;;;;;61.60;31.60;;;;;;;-0.69;94.00;100539.48;436724;1253;97886;-39
2024/01/29 01:13:51;;;;;;;81.40;39.40;;;;;;;-0.86;93.67;100537.81;436491;1252;110752;-38
2024/01/29 01:23:55;;;;;;;93.70;43.90;;;;;;;-1.04;94.13;100540.86;436478;1252;108530;-39
2024/01/29 01:44:02;;;;;;;81.30;37.90;;;;;;;-1.15;94.02;100543.04;436308;1248;110756;-40
2024/01/29 01:54:09;;;;;;;58.40;32.90;;;;;;;-1.11;94.06;100547.21;436332;1248;107186;-40
2024/01/29 02:04:13;;;;;;;79.40;36.90;;;;;;;-1.17;93.97;100534.97;437032;1247;97880;-39
2024/01/29 02:14:17;;;;;;;88.70;35.70;;;;;;;-1.36;94.32;100522.81;435259;1257;97992;-39
2024/01/29 02:24:20;;;;;;;61.00;28.20;;;;;;;-1.38;94.24;100515.55;435236;1255;107631;-38
2024/01/29 02:34:24;;;;;;;51.20;27.70;;;;;;;-1.37;94.20;100495.73;435360;1254;98055;-39
2024/01/29 02:44:28;;;;;;;48.10;24.60;;;;;;;-1.32;94.45;100490.88;435195;1254;108619;-40
2024/01/29 02:54:31;;;;;;;44.80;22.80;;;;;;;-1.28;94.65;100480.02;435239;1253;98010;-39
2024/01/29 03:04:35;;;;;;;58.90;28.00;;;;;;;-1.25;94.82;100472.73;435339;1257;111531;-39
2024/01/29 03:14:39;;;;;;;54.80;26.30;;;;;;;-1.25;94.89;100479.45;435318;1254;98036;-42
2024/01/29 03:24:46;;;;;;;43.30;23.70;;;;;;;-1.15;94.92;100485.02;435224;1251;96671;-40
2024/01/29 03:34:50;;;;;;;42.20;20.30;;;;;;;-1.08;94.92;100483.84;435167;1255;109968;-40
2024/01/29 03:44:53;;;;;;;34.40;20.10;;;;;;;-1.04;94.86;100476.77;435092;1256;108688;-39
2024/01/29 03:54:56;;;;;;;34.60;19.40;;;;;;;-1.07;94.96;100475.98;435172;1254;97970;-39
2024/01/29 04:04:59;;;;;;;65.90;29.20;;;;;;;-1.19;95.30;100473.70;435257;1256;108128;-38
2024/01/29 04:15:08;;;;;;;53.70;28.00;;;;;;;-1.40;95.19;100463.44;435275;1252;98297;-40
2024/01/29 04:25:11;;;;;;;41.10;22.60;;;;;;;-1.44;95.28;100450.41;435225;1257;97919;-39
2024/01/29 04:35:15;;;;;;;45.80;25.50;;;;;;;-1.41;95.74;100440.33;435445;1252;108386;-40
2024/01/29 04:45:19;;;;;;;40.60;20.50;;;;;;;-1.38;95.85;100441.13;435026;1253;98016;-39
2024/01/29 04:55:23;;;;;;;40.10;22.30;;;;;;;-1.36;95.59;100448.83;435222;1258;109506;-39
2024/01/29 05:15:30;;;;;;;56.90;29.20;;;;;;;-1.62;95.84;100424.39;435306;1252;98182;-39
2024/01/29 05:25:33;;;;;;;49.90;26.70;;;;;;;-1.66;95.63;100408.37;435302;1256;97787;-39
2024/01/29 05:35:38;;;;;;;47.30;25.70;;;;;;;-1.65;95.86;100411.91;435173;1253;107711;-39
2024/01/29 05:45:41;;;;;;;40.90;22.20;;;;;;;-1.59;96.12;100415.50;435190;1256;97493;-38
2024/01/29 05:55:44;;;;;;;38.90;21.40;;;;;;;-1.52;96.01;100425.04;435228;1252;107305;-39
2024/01/29 06:05:48;;;;;;;64.80;29.20;;;;;;;-1.59;95.94;100427.43;435299;1256;96579;-39
2024/01/29 06:25:59;;;;;;;59.50;29.30;;;;;;;-1.83;95.79;100435.73;435223;1255;107494;-39
2024/01/29 06:46:06;;;;;;;54.30;28.30;;;;;;;-1.77;96.21;100434.38;435177;1253;109360;-41
2024/01/29 06:56:13;;;;;;;44.80;25.40;;;;;;;-1.71;96.45;100439.16;435121;1255;108824;-39
2024/01/29 07:16:24;;;;;;;74.10;38.40;;;;;;;-1.52;96.88;100424.31;435259;1252;108663;-39
2024/01/29 07:26:27;;;;;;;69.50;34.30;;;;;;;-1.38;97.25;100415.19;435202;1256;97913;-39
2024/01/29 07:36:31;;;;;;;60.80;32.70;;;;;;;-0.99;97.52;100424.11;435318;1252;97076;-39
2024/01/29 08:06:41;;;;;;;64.70;34.20;;;;;;;2.27;95.92;100411.73;435267;1256;96652;-39
2024/01/29 08:16:43;;;;;;;87.70;44.60;;;;;;;3.00;94.91;100402.81;435294;1255;106578;-42
2024/01/29 08:36:54;;;;;;;50.00;28.20;;;;;;;3.96;92.85;100406.84;434816;1255;544718;-39
2024/01/29 08:46:58;;;;;;;46.50;24.80;;;;;;;4.23;91.60;100406.27;435202;1256;110722;-39
2024/01/29 08:57:05;;;;;;;41.70;24.50;;;;;;;3.93;90.23;100399.85;435275;1255;96666;-42
2024/01/29 09:07:09;;;;;;;48.90;26.90;;;;;;;3.52;90.09;100404.71;435265;1255;98018;-39
2024/01/29 09:17:12;;;;;;;39.90;20.90;;;;;;;3.59;90.10;100400.77;436888;1255;97880;-40
2024/01/29 09:27:16;;;;;;;27.50;15.70;;;;;;;3.78;89.63;100414.70;435154;1253;108095;-39
2024/01/29 09:37:20;;;;;;;38.20;22.70;;;;;;;4.02;89.58;100413.64;435354;1253;97500;-38
2024/01/29 09:47:25;;;;;;;31.90;17.10;;;;;;;4.18;89.16;100409.54;435364;1255;97909;-39
2024/01/29 09:57:29;;;;;;;30.50;15.60;;;;;;;4.45;88.50;100402.75;435224;1255;107643;-40
2024/01/29 10:07:32;;;;;;;36.20;20.50;;;;;;;4.68;87.84;100402.05;435317;1255;96802;-38
2024/01/29 10:17:36;;;;;;;27.70;14.10;;;;;;;4.83;86.70;100401.35;435304;1256;98535;-40
2024/01/29 10:27:43;;;;;;;34.10;18.40;;;;;;;5.14;86.62;100387.61;435109;1255;107365;-38
2024/01/29 10:38:12;;;;;;;37.70;17.90;;;;;;;5.36;86.34;100392.39;435201;1256;97853;-39
2024/01/29 10:48:16;;;;;;;28.80;17.50;;;;;;;5.55;85.86;100382.83;435109;1255;97475;-42
2024/01/29 10:58:20;;;;;;;28.30;15.30;;;;;;;5.80;84.91;100376.92;435203;1255;97890;-39
2024/01/29 11:08:24;;;;;;;30.90;17.10;;;;;;;6.02;83.22;100364.38;435633;1253;107911;-40
2024/01/29 11:18:32;;;;;;;32.30;16.10;;;;;;;6.22;82.52;100370.02;435179;1255;97890;-39
2024/01/29 11:38:43;;;;;;;23.80;12.90;;;;;;;6.59;81.07;100366.15;435261;1254;108332;-40
2024/01/29 11:48:46;;;;;;;27.40;14.40;;;;;;;6.87;80.62;100364.95;435109;1255;97887;-40
2024/01/29 12:09:07;;;;;;;24.60;12.80;;;;;;;6.95;78.09;100352.00;435162;1253;106914;-40
2024/01/29 12:19:10;;;;;;;24.70;12.90;;;;;;;6.90;77.35;100347.93;435210;1255;98311;-39
2024/01/29 12:39:18;;;;;;;29.80;14.90;;;;;;;6.96;76.44;100356.41;435280;1255;108660;-39
2024/01/29 13:09:28;;;;;;;32.80;14.50;;;;;;;7.15;74.65;100336.48;435185;1253;109418;-40
2024/01/29 13:19:33;;;;;;;26.80;13.90;;;;;;;7.18;74.12;100324.97;435154;1256;97922;-39
2024/01/29 13:29:37;;;;;;;40.00;16.70;;;;;;;7.12;73.90;100321.80;435191;1255;97482;-38
2024/01/29 13:39:41;;;;;;;32.60;13.20;;;;;;;7.13;72.09;100319.65;435202;1256;100164;-40
2024/01/29 13:49:45;;;;;;;27.60;14.40;;;;;;;7.13;70.52;100310.34;435130;1253;107815;-41
2024/01/29 14:09:56;;;;;;;24.50;12.10;;;;;;;6.97;69.26;100293.52;435026;1255;97011;-40
2024/01/29 14:19:59;;;;;;;28.40;12.00;;;;;;;6.93;67.74;100292.38;435094;1253;108114;-40
2024/01/29 14:30:06;;;;;;;23.80;10.90;;;;;;;6.79;67.70;100296.39;435296;1255;97882;-40
2024/01/29 14:40:09;;;;;;;23.50;11.30;;;;;;;6.58;68.27;100300.21;435060;1255;112087;-40
2024/01/29 14:50:17;;;;;;;22.90;11.40;;;;;;;6.42;68.34;100292.97;435292;1256;97874;-40
2024/01/29 15:10:24;;;;;;;26.10;12.90;;;;;;;5.96;69.42;100313.83;435282;1256;97893;-39
2024/01/29 15:20:29;;;;;;;33.60;13.90;;;;;;;5.72;69.34;100310.71;435160;1253;108482;-39
2024/01/29 15:40:36;;;;;;;44.70;24.40;;;;;;;5.10;70.14;100310.55;435138;1255;110599;-39
2024/01/29 15:50:42;;;;;;;47.30;23.00;;;;;;;4.80;70.63;100313.51;435033;1256;98012;-39
2024/01/29 16:01:01;;;;;;;53.00;24.50;;;;;;;4.65;71.26;100310.32;435187;1255;97483;-40
2024/01/29 16:11:04;;;;;;;77.30;34.00;;;;;;;4.51;71.94;100321.82;435167;1255;109806;-40
2024/01/29 16:21:07;;;;;;;72.40;34.50;;;;;;;4.27;72.65;100326.09;435056;1255;97487;-39
2024/01/29 16:31:10;;;;;;;72.50;34.10;;;;;;;3.96;73.17;100326.08;435193;1255;97355;-40
2024/01/29 16:41:19;;;;;;;73.90;35.40;;;;;;;3.70;73.76;100336.96;435118;1256;97906;-40
2024/01/29 16:51:23;;;;;;;69.50;35.90;;;;;;;3.57;74.16;100335.88;435104;1256;107668;-39
2024/01/29 17:01:27;;;;;;;75.50;38.20;;;;;;;3.51;74.66;100343.27;434872;1253;97896;-39
2024/01/29 17:21:33;;;;;;;56.60;31.50;;;;;;;3.24;75.48;100338.92;435063;1255;97890;-40
2024/01/29 17:31:38;;;;;;;62.00;31.30;;;;;;;3.18;75.84;100331.88;435135;1254;98014;-39
2024/01/29 17:51:45;;;;;;;114.00;49.80;;;;;;;2.90;76.78;100342.06;435125;1253;97877;-40
2024/01/29 18:01:50;;;;;;;100.20;46.20;;;;;;;2.74;77.04;100335.09;435204;1256;97472;-38
2024/01/29 18:22:22;;;;;;;88.70;41.40;;;;;;;2.33;77.86;100359.20;435287;1255;108775;-39
2024/01/29 18:42:29;;;;;;;76.60;33.70;;;;;;;2.26;78.95;100359.29;435179;1256;98074;-39
2024/01/29 18:52:32;;;;;;;77.70;34.90;;;;;;;2.29;79.32;100356.93;435067;1266;108102;-39
2024/01/29 19:02:36;;;;;;;94.70;40.90;;;;;;;2.27;79.72;100351.18;435139;1256;96627;-39
2024/01/29 19:12:39;;;;;;;73.90;34.90;;;;;;;2.16;80.12;100348.70;435203;1256;97925;-40
2024/01/29 19:32:50;;;;;;;75.20;34.20;;;;;;;2.21;80.68;100352.72;435219;1256;96644;-39
2024/01/29 19:42:54;;;;;;;83.90;39.80;;;;;;;2.15;81.02;100350.45;435214;1254;108264;-39
2024/01/29 19:53:03;;;;;;;60.00;29.40;;;;;;;2.11;81.40;100348.73;435157;1251;96662;-40
2024/01/29 20:13:15;;;;;;;85.00;39.50;;;;;;;2.10;81.96;100337.35;435102;1256;107292;-38
2024/01/29 20:23:19;;;;;;;63.50;33.20;;;;;;;2.03;81.99;100335.03;435129;1255;97043;-40
2024/01/29 20:43:31;;;;;;;91.10;40.30;;;;;;;1.92;82.31;100323.98;435240;1257;108492;-41
2024/01/29 20:53:33;;;;;;;57.30;30.40;;;;;;;1.78;82.20;100319.05;435257;1257;97608;-38
2024/01/29 21:03:38;;;;;;;49.00;24.00;;;;;;;1.81;82.05;100310.77;435230;1257;97492;-38
2024/01/29 21:13:42;;;;;;;64.10;27.10;;;;;;;1.88;81.85;100306.61;435260;1256;108540;-39
2024/01/29 21:23:48;;;;;;;38.80;19.40;;;;;;;1.92;81.27;100299.48;435331;1257;97893;-40
2024/01/29 21:33:53;;;;;;;35.90;18.70;;;;;;;2.12;80.30;100287.59;435296;1256;110380;-39
2024/01/29 21:43:56;;;;;;;42.20;17.90;;;;;;;2.25;79.59;100274.98;435167;1254;107600;-41
2024/01/29 22:04:06;;;;;;;19.80;11.10;;;;;;;2.38;78.15;100276.73;435158;1260;97464;-40
2024/01/29 22:14:13;;;;;;;22.10;11.50;;;;;;;2.54;77.29;100280.59;435158;1255;108432;-39
2024/01/29 22:24:17;;;;;;;19.30;10.60;;;;;;;2.58;77.12;100286.13;435102;1254;98131;-40
2024/01/29 22:34:21;;;;;;;18.50;9.10;;;;;;;2.58;76.55;100293.25;435324;1257;97466;-40
2024/01/29 22:44:25;;;;;;;20.70;9.60;;;;;;;2.70;75.90;100293.90;435078;1254;107877;-39
2024/01/29 22:54:31;;;;;;;19.20;10.30;;;;;;;2.74;75.41;100299.25;435281;1257;96675;-40
2024/01/29 23:04:35;;;;;;;20.30;10.50;;;;;;;2.71;75.19;100301.42;435416;1257;109692;-44
2024/01/29 23:14:40;;;;;;;15.60;7.20;;;;;;;2.65;74.86;100295.68;435379;1254;97854;-39
2024/01/29 23:24:43;;;;;;;14.30;6.80;;;;;;;2.73;74.62;100289.40;435089;1257;97877;-40
2024/01/29 23:34:46;;;;;;;17.10;9.60;;;;;;;2.73;74.81;100285.92;435163;1256;109884;-38
2024/01/29 23:44:51;;;;;;;23.60;10.20;;;;;;;2.70;74.69;100279.81;435225;1258;97869;-41
2024/01/29 23:54:54;;;;;;;22.30;9.00;;;;;;;2.65;74.42;100284.95;435186;1256;96692;-39
